Airport View

Enter AWOS ICAO identifier for current METAR.

ex. KFNL

KLEW 101556Z AUTO VRB04KT 10SM BKN035 27/19 A2999 RMK AO2 SLP159 T02720194

10 Aug 2020 16:30

Frequency: 118.025

Phone: 207-783-2806

Other Area AWOS: KPWM - KIWI - KAUG - KIZG

TAF KPWM 101120Z 1012/1112 00000KT P6SM SCT120 BKN250 FM101600 17007KT P6SM BKN080